Time;durP1;ratioP1;P1;durP2;ratioP2;P2;SDS_P1;SDS_P2;PMS_P1;PMS_P2;Temp;Humidity;BMP_temperature;BMP_pressure;BME280_temperature;BME280_humidity;BME280_pressure;Samples;Min_cycle;Max_cycle;Signal;HPM_P1;HPM_P2
2023/10/02 00:01:59;;;;;;;9.18;3.05;;;;;;;14.51;91.58;99034.69;5035468;28;20136;-65
2023/10/02 00:04:25;;;;;;;10.95;3.10;;;;;;;14.44;91.77;99032.97;5050929;28;20076;-65
2023/10/02 00:07:05;;;;;;;10.85;3.50;;;;;;;14.48;92.62;99031.59;5049800;28;20467;-64
2023/10/02 00:09:35;;;;;;;8.75;2.88;;;;;;;14.40;91.99;99034.41;5050540;28;20055;-65
2023/10/02 00:12:14;;;;;;;7.22;3.40;;;;;;;14.53;92.61;99029.94;5050878;28;20072;-65
2023/10/02 00:14:41;;;;;;;7.57;3.13;;;;;;;14.29;92.58;99025.09;5049862;28;20378;-65
2023/10/02 00:17:14;;;;;;;9.38;3.53;;;;;;;14.38;93.21;99034.59;5050982;28;20040;-65
2023/10/02 00:19:46;;;;;;;11.43;3.20;;;;;;;14.35;93.59;99026.97;5050155;28;20055;-64
2023/10/02 00:22:36;;;;;;;8.30;3.78;;;;;;;14.33;93.58;99038.91;5049820;28;20479;-65
2023/10/02 00:25:07;;;;;;;7.95;3.85;;;;;;;14.17;93.24;99023.97;5050689;28;20483;-65
2023/10/02 00:27:34;;;;;;;;;;;;;;;14.49;93.23;99030.56;5050169;28;20048;-64
2023/10/02 00:30:01;;;;;;;7.70;3.60;;;;;;;14.23;93.33;99036.53;5049742;28;19920;-65
2023/10/02 00:32:31;;;;;;;13.35;3.80;;;;;;;14.16;93.06;99035.66;5050731;28;20041;-65
2023/10/02 00:35:00;;;;;;;12.82;3.60;;;;;;;14.18;93.68;99033.63;5050534;28;20049;-65
2023/10/02 00:37:45;;;;;;;10.02;3.85;;;;;;;14.15;93.71;99039.34;5033480;28;20148;-65
2023/10/02 00:40:21;;;;;;;15.23;3.40;;;;;;;14.22;94.31;99040.22;5049819;28;20056;-65
2023/10/02 00:43:33;;;;;;;10.38;3.78;;;;;;;14.19;94.65;99039.78;5050555;28;20048;-64
2023/10/02 00:45:43;;;;;;;10.10;3.55;;;;;;;14.02;94.28;99043.78;5049297;28;20037;-65
2023/10/02 00:48:33;;;;;;;8.30;3.38;;;;;;;14.02;94.55;99049.97;5033182;28;20175;-65
2023/10/02 00:51:05;;;;;;;11.30;3.65;;;;;;;14.11;94.94;99047.94;5053316;28;20048;-65
2023/10/02 00:53:53;;;;;;;16.38;4.38;;;;;;;14.20;95.02;99047.63;5053892;28;20037;-65
2023/10/02 00:56:28;;;;;;;13.38;4.45;;;;;;;14.03;94.73;99050.75;5053083;28;20052;-65
2023/10/02 00:59:00;;;;;;;9.35;3.60;;;;;;;14.13;94.81;99049.41;5052760;28;20079;-65
2023/10/02 01:01:27;;;;;;;11.88;3.90;;;;;;;14.11;94.42;99047.94;5037196;28;20126;-65
2023/10/02 01:04:09;;;;;;;12.85;3.80;;;;;;;14.22;95.04;99044.75;5052874;28;20451;-65
2023/10/02 01:06:54;;;;;;;10.93;4.30;;;;;;;14.17;94.54;99042.66;5053877;28;20355;-67
2023/10/02 01:09:25;;;;;;;9.05;3.40;;;;;;;14.12;94.13;99041.59;5052761;28;20036;-64
2023/10/02 01:11:58;;;;;;;;;;;;;;;14.30;94.09;99048.09;5020927;28;20079;-64
2023/10/02 01:14:47;;;;;;;12.80;3.63;;;;;;;14.16;94.77;99053.53;5036146;28;19982;-65
2023/10/02 01:17:14;;;;;;;10.82;3.72;;;;;;;14.05;94.68;99054.06;5052949;28;20037;-65
2023/10/02 01:19:57;;;;;;;14.50;3.72;;;;;;;13.94;94.87;99051.94;5053952;28;20072;-64
2023/10/02 01:22:28;;;;;;;12.57;3.30;;;;;;;14.06;95.44;99055.72;5054064;28;20044;-64
2023/10/02 01:25:12;;;;;;;10.40;3.83;;;;;;;13.97;95.49;99052.38;5053639;28;20045;-64
2023/10/02 01:27:50;;;;;;;10.77;3.90;;;;;;;14.11;95.71;99059.47;5037092;28;20498;-64
2023/10/02 01:30:23;;;;;;;10.65;3.40;;;;;;;14.03;96.13;99061.44;5053816;28;20056;-64
2023/10/02 01:33:21;;;;;;;10.70;3.60;;;;;;;14.07;96.45;99055.50;5053225;28;20117;-64
2023/10/02 01:35:56;;;;;;;11.25;3.65;;;;;;;13.99;96.83;99058.31;5053218;28;20474;-64
2023/10/02 01:38:33;;;;;;;5.72;3.30;;;;;;;14.00;96.55;99062.66;5053361;28;20068;-64
2023/10/02 01:41:06;;;;;;;14.10;3.88;;;;;;;14.02;96.07;99062.47;5053158;28;20049;-64
2023/10/02 01:43:43;;;;;;;10.60;3.88;;;;;;;14.00;96.55;99061.84;5052057;28;20124;-65
2023/10/02 01:46:10;;;;;;;10.50;3.85;;;;;;;13.83;96.63;99065.78;5053570;28;20048;-65
2023/10/02 01:48:41;;;;;;;9.30;4.18;;;;;;;13.91;96.75;99069.16;5052247;28;20068;-64
2023/10/02 01:51:16;;;;;;;7.93;3.60;;;;;;;13.89;97.28;99070.34;5051883;28;20048;-65
2023/10/02 01:53:43;;;;;;;8.57;3.13;;;;;;;13.78;96.82;99078.91;5053379;28;20056;-65
2023/10/02 01:56:11;;;;;;;11.15;4.22;;;;;;;13.85;97.33;99074.44;5051757;28;20049;-64
2023/10/02 01:58:45;;;;;;;12.23;3.65;;;;;;;13.87;98.02;99083.09;5051852;28;20037;-64
2023/10/02 02:01:12;;;;;;;10.00;3.97;;;;;;;13.70;98.31;99071.84;5051528;28;20056;-65
2023/10/02 02:03:40;;;;;;;12.93;3.83;;;;;;;13.67;98.19;99076.75;5051815;28;20090;-65
2023/10/02 02:06:08;;;;;;;15.70;4.95;;;;;;;13.56;98.35;99080.75;5035071;28;20053;-65
2023/10/02 02:08:38;;;;;;;7.72;3.90;;;;;;;13.79;98.63;99075.22;5052676;28;20504;-65
2023/10/02 02:11:18;;;;;;;12.38;4.30;;;;;;;13.81;97.92;99089.19;5052570;28;20056;-65
2023/10/02 02:13:52;;;;;;;9.27;3.40;;;;;;;14.04;97.55;99077.25;5051494;28;20421;-65
2023/10/02 02:16:36;;;;;;;10.50;4.07;;;;;;;14.23;97.54;99084.63;5067960;28;20041;-65
2023/10/02 02:19:06;;;;;;;15.25;3.88;;;;;;;14.09;96.25;99077.53;5052362;28;20094;-65
2023/10/02 02:21:33;;;;;;;12.85;3.78;;;;;;;14.21;95.69;99083.13;5067996;28;20053;-65
2023/10/02 02:24:08;;;;;;;10.48;3.88;;;;;;;14.19;95.27;99083.34;5051536;28;20073;-65
2023/10/02 02:26:39;;;;;;;9.48;4.20;;;;;;;14.33;94.97;99081.63;5052476;28;20463;-65
2023/10/02 02:29:26;;;;;;;9.55;3.65;;;;;;;14.36;94.71;99079.38;5051484;28;20040;-65
2023/10/02 02:31:54;;;;;;;13.18;4.10;;;;;;;14.33;94.91;99085.13;5037570;28;20080;-65
2023/10/02 02:34:23;;;;;;;8.02;3.72;;;;;;;14.32;94.37;99082.63;5067902;28;20041;-64
2023/10/02 02:36:50;;;;;;;13.77;3.97;;;;;;;14.36;94.78;99075.91;5051322;28;20364;-64
2023/10/02 02:39:20;;;;;;;10.48;4.30;;;;;;;14.41;94.88;99074.28;5052407;28;20423;-64
2023/10/02 02:42:08;;;;;;;12.55;4.47;;;;;;;14.37;94.78;99072.19;5052202;28;20044;-64
2023/10/02 02:44:39;;;;;;;13.27;4.22;;;;;;;14.45;94.40;99070.19;5052017;28;20391;-64
2023/10/02 02:47:08;;;;;;;9.73;4.07;;;;;;;14.39;94.55;99070.16;5050601;28;20052;-64
2023/10/02 02:49:48;;;;;;;9.07;4.00;;;;;;;14.48;94.53;99069.00;5050919;28;20132;-64
2023/10/02 02:52:16;;;;;;;7.65;4.10;;;;;;;14.49;93.90;99062.63;5052142;28;20052;-66
2023/10/02 02:54:44;;;;;;;20.15;4.75;;;;;;;14.46;93.50;99074.53;5050826;28;20060;-64
2023/10/02 02:57:13;;;;;;;9.88;4.25;;;;;;;14.44;93.29;99076.56;5051849;28;20071;-65
2023/10/02 02:59:40;;;;;;;7.60;4.35;;;;;;;14.41;93.82;99082.28;5050557;28;20052;-64
2023/10/02 03:02:08;;;;;;;8.00;4.00;;;;;;;14.48;93.25;99085.03;5051479;28;20395;-65
2023/10/02 03:04:36;;;;;;;15.38;4.88;;;;;;;14.53;93.16;99079.91;5051336;28;20052;-64
2023/10/02 03:07:09;;;;;;;15.63;4.80;;;;;;;14.44;93.16;99084.56;5051671;28;20465;-64
2023/10/02 03:09:36;;;;;;;16.58;4.95;;;;;;;14.47;94.08;99080.69;5051837;28;20041;-65
2023/10/02 03:12:05;;;;;;;13.68;4.75;;;;;;;14.46;93.87;99079.88;5051307;28;20429;-65
2023/10/02 03:14:33;;;;;;;11.02;4.57;;;;;;;14.57;93.90;99082.00;5050350;28;20048;-65
2023/10/02 03:17:22;;;;;;;17.73;5.93;;;;;;;14.46;94.20;99079.88;5051437;28;20136;-65
2023/10/02 03:19:45;;;;;;;11.45;5.15;;;;;;;14.50;94.42;99081.13;5051528;28;20056;-64
2023/10/02 03:22:11;;;;;;;9.95;5.25;;;;;;;14.49;94.16;99070.63;5050460;28;20045;-64
2023/10/02 03:24:39;;;;;;;12.70;4.78;;;;;;;14.48;94.64;99082.34;5051550;28;20367;-64
2023/10/02 03:27:08;;;;;;;14.57;5.40;;;;;;;14.53;94.54;99080.72;5051324;28;20036;-65
2023/10/02 03:29:36;;;;;;;14.52;5.03;;;;;;;14.66;94.81;99085.31;5050521;28;20049;-64
2023/10/02 03:32:05;;;;;;;12.10;5.13;;;;;;;14.65;94.13;99086.34;5051534;28;20383;-64
2023/10/02 03:34:38;;;;;;;13.70;5.38;;;;;;;14.55;93.94;99084.03;5050875;28;20045;-64
2023/10/02 03:37:13;;;;;;;14.55;5.93;;;;;;;14.66;94.08;99079.97;5050765;28;20106;-64
2023/10/02 03:39:59;;;;;;;14.00;5.18;;;;;;;14.64;93.92;99085.53;5050501;28;20132;-64
2023/10/02 03:42:30;;;;;;;13.98;5.70;;;;;;;14.63;93.82;99083.03;5050625;28;20075;-64
2023/10/02 03:44:59;;;;;;;13.05;5.60;;;;;;;14.65;93.98;99087.16;5051270;28;20041;-64
2023/10/02 03:47:30;;;;;;;11.90;5.50;;;;;;;14.64;94.12;99090.88;5050049;28;20123;-64
2023/10/02 03:50:00;;;;;;;;;;;;;;;14.80;93.76;99087.06;5034361;28;20041;-64
2023/10/02 03:52:28;;;;;;;8.75;5.15;;;;;;;14.59;93.64;99101.31;5049247;28;19927;-64
2023/10/02 03:54:55;;;;;;;12.63;6.10;;;;;;;14.59;93.64;99090.63;5051141;28;20044;-64
2023/10/02 03:57:42;;;;;;;12.45;5.63;;;;;;;14.64;93.45;99096.22;5051537;28;20107;-64
2023/10/02 04:00:26;;;;;;;15.10;5.55;;;;;;;14.69;93.38;99098.28;5050381;28;20127;-64
2023/10/02 04:02:54;;;;;;;10.68;5.85;;;;;;;14.62;93.08;99106.25;5051597;28;20364;-64
2023/10/02 04:08:24;;;;;;;13.85;6.68;;;;;;;14.34;93.79;99101.97;4989799;28;20054;-64
2023/10/02 04:10:56;;;;;;;10.38;5.90;;;;;;;14.52;94.60;99099.63;4975347;28;20046;-65
2023/10/02 04:13:31;;;;;;;12.05;5.50;;;;;;;14.58;94.03;99096.16;4990164;28;20607;-65
2023/10/02 04:16:46;;;;;;;11.57;5.97;;;;;;;14.67;93.65;99093.16;4990104;28;20104;-64
2023/10/02 04:18:49;;;;;;;18.00;6.07;;;;;;;14.72;93.05;99103.25;4972342;28;20813;-68
2023/10/02 04:21:22;;;;;;;;;;;;;;;15.00;92.53;99096.00;4974564;28;20053;-66
2023/10/02 04:23:52;;;;;;;12.45;6.38;;;;;;;14.81;92.23;99102.06;4990487;28;20360;-65
2023/10/02 04:26:20;;;;;;;11.15;5.70;;;;;;;14.86;92.23;99111.16;5030513;28;20328;-65
2023/10/02 04:28:58;;;;;;;9.45;5.63;;;;;;;14.96;92.44;99105.44;5070080;28;20045;-65
2023/10/02 04:31:34;;;;;;;12.77;6.05;;;;;;;15.02;92.18;99110.81;5054802;28;20138;-65
2023/10/02 04:34:24;;;;;;;12.57;5.43;;;;;;;14.91;91.82;99111.34;5054560;28;20056;-69
2023/10/02 04:36:51;;;;;;;11.03;5.63;;;;;;;14.81;91.60;99120.78;5040282;28;20072;-68
2023/10/02 04:42:14;;;;;;;14.00;5.82;;;;;;;14.89;91.66;99128.63;5053453;28;20106;-68
2023/10/02 04:44:45;;;;;;;7.57;4.90;;;;;;;14.91;91.74;99127.41;5040853;28;20059;-68
2023/10/02 04:47:17;;;;;;;8.77;5.15;;;;;;;14.83;91.91;99127.59;5020036;28;20048;-67
2023/10/02 04:55:31;;;;;;;10.75;5.72;;;;;;;15.04;91.46;99132.84;5038303;28;20076;-69
2023/10/02 04:58:19;;;;;;;9.10;5.97;;;;;;;15.03;91.21;99141.06;5019125;28;20482;-70
2023/10/02 05:03:52;;;;;;;8.80;5.00;;;;;;;14.89;91.64;99140.16;5019451;28;20040;-69
2023/10/02 05:06:39;;;;;;;7.97;5.00;;;;;;;14.95;91.18;99135.88;4993005;28;20064;-68
2023/10/02 05:11:55;;;;;;;7.20;4.28;;;;;;;15.04;91.24;99153.41;5041257;28;20040;-68
2023/10/02 05:14:28;;;;;;;13.18;5.22;;;;;;;15.16;91.03;99151.81;4994964;28;20069;-68
2023/10/02 05:20:01;;;;;;;12.50;5.40;;;;;;;15.15;90.58;99152.84;5012707;28;20471;-69
2023/10/02 05:22:31;;;;;;;10.27;4.75;;;;;;;15.28;90.63;99160.94;5042943;28;20087;-68
2023/10/02 05:24:58;;;;;;;9.65;4.78;;;;;;;15.30;90.30;99158.06;5041816;28;20047;-68
2023/10/02 05:27:33;;;;;;;10.93;4.93;;;;;;;15.40;90.30;99167.41;5058009;28;20033;-67
2023/10/02 05:30:00;;;;;;;9.65;4.88;;;;;;;15.19;90.06;99162.13;5016905;28;20044;-68
2023/10/02 05:32:35;;;;;;;10.23;4.43;;;;;;;15.36;90.12;99158.06;5008208;28;20079;-68
2023/10/02 05:37:42;;;;;;;7.32;4.28;;;;;;;15.29;89.97;99165.25;5011839;28;20376;-68
2023/10/02 05:45:47;;;;;;;10.07;4.80;;;;;;;15.50;89.46;99167.84;5009626;28;20531;-68
2023/10/02 05:50:54;;;;;;;10.80;4.15;;;;;;;15.36;89.30;99174.13;5031808;28;20491;-67
2023/10/02 05:53:29;;;;;;;9.65;4.47;;;;;;;15.43;89.36;99169.66;4997679;28;20046;-68
2023/10/02 05:56:05;;;;;;;6.47;4.22;;;;;;;15.46;89.02;99179.13;5001182;28;20045;-68
2023/10/02 05:58:33;;;;;;;9.93;4.68;;;;;;;15.48;88.69;99177.09;4999840;28;20157;-69
2023/10/02 06:01:04;;;;;;;6.35;4.00;;;;;;;15.62;88.69;99181.47;4983574;28;20053;-68
2023/10/02 06:03:34;;;;;;;11.60;4.72;;;;;;;15.65;88.53;99179.22;5000077;28;20053;-68
2023/10/02 06:06:15;;;;;;;;;;;;;;;15.97;87.77;99193.72;5033905;28;20045;-69
2023/10/02 06:09:00;;;;;;;14.68;5.45;;;;;;;15.97;87.47;99188.34;5000607;28;19920;-67
2023/10/02 06:11:27;;;;;;;8.93;4.90;;;;;;;15.88;87.19;99194.94;4999969;28;20045;-67
2023/10/02 06:13:57;;;;;;;7.47;5.10;;;;;;;15.94;86.73;99196.81;4999728;28;20432;-68
2023/10/02 06:16:26;;;;;;;9.57;4.72;;;;;;;15.91;86.70;99199.88;5032172;28;20045;-68
2023/10/02 06:19:02;;;;;;;8.40;4.80;;;;;;;15.90;86.67;99204.41;4999156;28;20099;-67
2023/10/02 06:21:30;;;;;;;8.02;4.57;;;;;;;15.82;86.37;99204.59;5032075;28;20053;-68
2023/10/02 06:23:56;;;;;;;11.43;5.22;;;;;;;15.86;86.24;99205.84;4999345;28;20460;-68
2023/10/02 06:26:26;;;;;;;12.45;4.72;;;;;;;15.80;86.43;99203.97;5015567;28;20080;-68
2023/10/02 06:29:13;;;;;;;7.75;4.07;;;;;;;15.84;85.97;99205.22;4999594;28;20076;-68
2023/10/02 06:31:41;;;;;;;9.38;4.13;;;;;;;15.85;86.22;99212.22;5002163;28;20037;-67
2023/10/02 06:34:12;;;;;;;7.78;4.25;;;;;;;15.95;85.88;99211.84;4999783;28;20144;-68
2023/10/02 06:36:48;;;;;;;;;;;;;;;16.04;85.72;99221.31;4999994;28;20049;-68
2023/10/02 06:39:21;;;;;;;10.05;4.40;;;;;;;15.89;86.00;99212.66;5015173;28;19931;-69
2023/10/02 06:41:47;;;;;;;7.70;4.55;;;;;;;15.87;85.92;99214.69;4998754;28;20053;-68
2023/10/02 06:44:16;;;;;;;10.10;4.80;;;;;;;15.86;86.12;99205.84;5015397;28;20064;-68
2023/10/02 06:46:55;;;;;;;11.80;4.65;;;;;;;15.93;85.81;99203.19;4999064;28;20465;-67
2023/10/02 06:49:21;;;;;;;5.60;4.53;;;;;;;15.72;86.45;99212.19;5014830;28;20048;-68
2023/10/02 06:51:50;;;;;;;8.80;4.05;;;;;;;16.04;85.99;99215.97;5015018;28;20057;-68
2023/10/02 06:54:19;;;;;;;8.73;4.00;;;;;;;16.23;85.50;99225.91;4998800;28;20399;-68
2023/10/02 06:56:46;;;;;;;8.48;4.20;;;;;;;16.41;84.07;99224.28;4982685;28;20140;-67
2023/10/02 06:59:12;;;;;;;8.85;3.75;;;;;;;16.51;83.04;99222.03;5014626;28;20057;-67
2023/10/02 07:02:04;;;;;;;7.07;4.07;;;;;;;16.73;82.32;99228.03;4998384;28;20072;-68
2023/10/02 07:04:30;;;;;;;8.73;4.57;;;;;;;16.88;81.26;99229.47;5014664;28;20045;-67
2023/10/02 07:07:03;;;;;;;12.02;5.07;;;;;;;17.06;80.41;99222.63;5014458;28;20047;-68
2023/10/02 07:09:36;;;;;;;8.82;4.78;;;;;;;17.24;79.98;99231.66;4999689;28;20041;-68
2023/10/02 07:12:15;;;;;;;9.73;4.15;;;;;;;17.12;80.35;99233.34;4998497;28;20103;-68
2023/10/02 07:15:10;;;;;;;11.40;5.03;;;;;;;16.99;80.42;99237.91;5030995;28;20052;-68
2023/10/02 07:17:47;;;;;;;9.45;4.38;;;;;;;16.82;80.67;99235.66;5006919;28;20067;-68
2023/10/02 07:20:17;;;;;;;6.88;4.40;;;;;;;16.71;81.36;99240.84;4949036;28;20219;-70
2023/10/02 07:22:44;;;;;;;13.63;4.47;;;;;;;16.64;81.53;99246.19;5013843;28;20064;-67
2023/10/02 07:25:10;;;;;;;9.80;4.93;;;;;;;16.90;80.92;99250.72;5013169;28;20045;-72
2023/10/02 07:27:37;;;;;;;9.82;4.70;;;;;;;16.88;80.27;99252.78;4996864;28;20079;-68
2023/10/02 07:30:05;;;;;;;8.88;4.55;;;;;;;17.01;80.42;99257.28;4964915;28;20132;-68
2023/10/02 07:32:34;;;;;;;7.67;4.53;;;;;;;16.90;80.05;99256.06;4981289;28;20595;-68
2023/10/02 07:35:09;;;;;;;7.30;4.35;;;;;;;16.92;79.51;99262.06;4980971;28;20041;-67
2023/10/02 07:37:36;;;;;;;7.82;4.45;;;;;;;16.95;79.63;99261.66;5014424;28;20053;-68
2023/10/02 07:40:06;;;;;;;7.00;4.03;;;;;;;16.88;79.89;99269.69;4980541;28;20037;-68
2023/10/02 07:42:33;;;;;;;7.30;4.38;;;;;;;16.95;80.37;99275.06;4997047;28;20067;-68
2023/10/02 07:45:24;;;;;;;8.43;4.43;;;;;;;16.78;80.30;99265.78;5012919;28;20133;-68
2023/10/02 07:48:10;;;;;;;9.48;4.57;;;;;;;16.81;80.97;99263.50;4983073;28;20153;-68
2023/10/02 07:50:41;;;;;;;6.72;4.28;;;;;;;16.95;80.95;99268.88;5015711;28;20503;-68
2023/10/02 07:53:08;;;;;;;11.00;5.13;;;;;;;16.86;80.61;99265.56;4980418;28;20168;-68
2023/10/02 07:55:43;;;;;;;11.63;4.80;;;;;;;17.00;80.26;99272.59;4964405;28;20045;-69
2023/10/02 07:58:13;;;;;;;13.20;5.18;;;;;;;17.00;80.06;99271.75;4980740;28;20053;-68
2023/10/02 08:00:42;;;;;;;7.38;4.78;;;;;;;16.99;79.90;99280.84;5001041;28;20061;-68
2023/10/02 08:05:58;;;;;;;7.00;3.70;;;;;;;16.90;79.93;99271.38;5019690;28;20049;-68
2023/10/02 08:08:31;;;;;;;11.38;4.00;;;;;;;16.83;79.89;99280.25;5000914;28;20077;-68
2023/10/02 08:11:02;;;;;;;8.48;3.88;;;;;;;16.78;80.45;99285.38;5017439;28;20144;-68
2023/10/02 08:13:48;;;;;;;6.97;3.97;;;;;;;16.92;79.95;99282.69;4984455;28;20045;-68
2023/10/02 08:16:17;;;;;;;8.38;3.70;;;;;;;16.85;79.62;99288.88;4987088;28;20099;-68
2023/10/02 08:18:59;;;;;;;6.90;3.78;;;;;;;16.98;79.66;99282.69;4984527;28;20041;-68
2023/10/02 08:21:46;;;;;;;9.68;3.90;;;;;;;16.79;79.82;99292.41;4997102;28;20088;-68
2023/10/02 08:24:13;;;;;;;9.95;4.03;;;;;;;16.75;79.96;99293.84;5003009;28;20060;-68
2023/10/02 08:26:43;;;;;;;6.43;3.53;;;;;;;16.66;80.26;99294.25;5016326;28;20110;-68
2023/10/02 08:29:11;;;;;;;4.88;3.33;;;;;;;16.60;80.67;99303.94;5000520;28;20073;-68
2023/10/02 08:31:49;;;;;;;9.05;3.08;;;;;;;16.68;80.44;99298.38;5016875;28;20110;-68
2023/10/02 08:34:26;;;;;;;5.70;3.63;;;;;;;16.69;80.55;99310.75;5016444;28;20707;-68
2023/10/02 08:37:05;;;;;;;6.53;3.75;;;;;;;16.81;81.13;99311.78;5017811;28;20041;-68
2023/10/02 08:39:34;;;;;;;12.10;3.67;;;;;;;16.94;80.81;99315.50;5001211;28;20049;-68
2023/10/02 08:42:08;;;;;;;5.00;3.20;;;;;;;16.86;80.58;99319.22;4983767;28;20060;-68
2023/10/02 08:44:38;;;;;;;6.53;3.05;;;;;;;16.95;79.52;99319.84;4985023;28;20045;-68
2023/10/02 08:47:11;;;;;;;9.32;2.67;;;;;;;16.97;79.86;99331.19;5000908;28;20045;-68
2023/10/02 08:49:39;;;;;;;6.15;2.90;;;;;;;16.89;79.89;99329.53;4985288;28;20476;-69
2023/10/02 08:52:12;;;;;;;3.15;2.20;;;;;;;16.97;80.04;99320.47;4985295;28;20040;-68
2023/10/02 08:54:42;;;;;;;6.65;2.17;;;;;;;16.81;79.89;99330.56;5003420;28;20069;-68
2023/10/02 08:57:09;;;;;;;5.03;2.13;;;;;;;16.86;79.94;99332.63;5033837;28;20471;-68
2023/10/02 08:59:41;;;;;;;7.45;1.77;;;;;;;16.78;80.34;99327.47;5000828;28;20057;-68
2023/10/02 09:02:15;;;;;;;9.88;1.90;;;;;;;16.90;80.99;99327.69;5017628;28;20117;-68
2023/10/02 09:04:51;;;;;;;4.32;1.83;;;;;;;16.99;80.80;99327.25;5000592;28;20037;-68
2023/10/02 09:07:44;;;;;;;3.63;1.83;;;;;;;17.80;78.53;99334.00;5016629;28;20052;-68
2023/10/02 09:10:18;;;;;;;6.10;1.90;;;;;;;18.55;74.34;99342.16;5016032;28;20099;-68
2023/10/02 09:12:50;;;;;;;3.35;1.45;;;;;;;19.13;70.43;99329.31;4985808;28;20041;-68
2023/10/02 09:15:27;;;;;;;4.53;1.52;;;;;;;19.59;67.60;99330.56;5001033;28;20432;-68
2023/10/02 09:17:57;;;;;;;2.50;1.83;;;;;;;19.35;66.80;99326.06;5000676;28;20044;-68
2023/10/02 09:20:38;;;;;;;4.10;1.55;;;;;;;19.35;66.29;99336.81;5001342;28;20045;-69
2023/10/02 09:23:08;;;;;;;3.08;1.67;;;;;;;19.25;66.97;99328.38;5002028;28;20147;-68
2023/10/02 09:25:37;;;;;;;6.82;1.55;;;;;;;19.17;67.18;99331.38;5033043;28;20072;-68
2023/10/02 09:28:13;;;;;;;5.05;2.75;;;;;;;19.13;66.77;99337.38;4984332;28;20048;-68
2023/10/02 09:30:41;;;;;;;11.48;7.30;;;;;;;19.01;66.85;99329.22;5000382;28;20103;-68
2023/10/02 09:33:14;;;;;;;4.60;1.92;;;;;;;19.07;66.69;99328.34;4984767;28;20041;-68
2023/10/02 09:38:10;;;;;;;11.25;2.65;;;;;;;18.76;67.42;99332.94;5000027;28;20045;-68
2023/10/02 09:41:14;;;;;;;2.90;1.60;;;;;;;18.81;70.34;99333.91;5033159;28;20049;-68
2023/10/02 09:43:41;;;;;;;3.97;1.60;;;;;;;18.68;69.71;99336.72;5020781;28;20495;-68
2023/10/02 09:46:20;;;;;;;1.88;1.40;;;;;;;18.59;68.80;99340.69;5000076;28;20048;-68
2023/10/02 09:49:01;;;;;;;1.90;1.55;;;;;;;18.71;68.75;99344.34;5001542;28;20595;-68
2023/10/02 09:51:30;;;;;;;5.63;1.67;;;;;;;18.51;67.61;99335.59;5015988;28;20084;-68
2023/10/02 09:54:18;;;;;;;2.17;1.45;;;;;;;18.69;67.51;99346.44;5031925;28;20144;-68
2023/10/02 09:57:06;;;;;;;3.75;1.55;;;;;;;18.64;66.99;99343.56;5000097;28;20037;-68
2023/10/02 09:59:42;;;;;;;4.00;1.52;;;;;;;18.48;67.59;99346.78;5016712;28;20058;-68
2023/10/02 10:02:08;;;;;;;3.15;1.50;;;;;;;18.48;66.77;99348.63;4999136;28;20053;-68
2023/10/02 10:06:17;;;;;;;5.50;1.60;;;;;;;18.96;67.38;99344.38;5031727;28;20162;-66
2023/10/02 10:07:52;;;;;;;6.03;2.03;;;;;;;19.31;64.98;99353.66;5017202;28;20558;-66
2023/10/02 10:10:28;;;;;;;5.70;2.45;;;;;;;19.57;63.17;99348.81;5032010;28;20038;-65
2023/10/02 10:13:09;;;;;;;2.60;1.17;;;;;;;19.39;63.05;99346.09;5037035;28;20136;-65
2023/10/02 10:15:37;;;;;;;2.33;1.27;;;;;;;19.21;63.33;99348.72;5042027;28;20483;-66
2023/10/02 10:18:12;;;;;;;3.30;1.40;;;;;;;19.18;63.36;99338.41;5035182;28;20256;-65
2023/10/02 10:20:39;;;;;;;6.47;3.55;;;;;;;19.20;63.79;99344.41;5033047;28;20565;-64
2023/10/02 10:23:31;;;;;;;5.43;2.80;;;;;;;19.40;63.48;99342.38;5032363;28;20053;-65
2023/10/02 10:26:07;;;;;;;4.53;1.30;;;;;;;19.53;62.31;99353.00;5042975;28;20551;-65
2023/10/02 10:28:50;;;;;;;3.17;1.52;;;;;;;19.79;61.61;99339.28;5041797;28;20543;-64
2023/10/02 10:31:33;;;;;;;6.07;1.30;;;;;;;20.15;60.38;99338.47;5042221;28;20459;-66
2023/10/02 10:33:59;;;;;;;5.70;1.70;;;;;;;20.17;59.97;99340.94;5042348;28;20151;-66
2023/10/02 10:36:38;;;;;;;2.80;1.13;;;;;;;20.61;57.99;99341.38;5040378;28;20428;-65
2023/10/02 10:39:44;;;;;;;2.10;1.52;;;;;;;20.64;57.07;99335.50;5039009;28;20037;-66
2023/10/02 10:42:10;;;;;;;2.67;1.40;;;;;;;20.40;57.48;99341.88;5038187;28;20057;-66
2023/10/02 10:44:43;;;;;;;1.65;1.10;;;;;;;20.44;58.45;99337.66;5038592;28;20452;-67
2023/10/02 10:47:14;;;;;;;5.60;1.50;;;;;;;20.16;58.22;99350.09;5035784;28;20037;-67
2023/10/02 10:50:26;;;;;;;3.95;1.80;;;;;;;20.18;58.89;99337.19;5036828;28;20109;-66
2023/10/02 10:52:44;;;;;;;3.25;1.35;;;;;;;19.89;59.21;99338.75;5044615;28;20048;-67
2023/10/02 10:55:32;;;;;;;3.05;1.70;;;;;;;19.99;59.68;99345.25;5043150;28;20325;-65
2023/10/02 10:57:59;;;;;;;2.55;1.60;;;;;;;19.79;59.54;99341.97;5020714;28;20042;-65
2023/10/02 11:00:25;;;;;;;2.97;1.70;;;;;;;19.75;59.12;99342.63;5044757;28;20056;-67
2023/10/02 11:03:38;;;;;;;2.22;1.60;;;;;;;19.94;59.90;99342.41;5084131;28;20053;-66
2023/10/02 11:06:03;;;;;;;3.30;1.60;;;;;;;19.97;59.29;99338.44;5050320;28;20077;-67
2023/10/02 11:08:33;;;;;;;5.05;1.60;;;;;;;19.89;59.40;99336.88;5051777;28;20056;-66
2023/10/02 11:11:04;;;;;;;3.55;1.75;;;;;;;19.84;60.29;99338.59;5051681;28;20149;-65
2023/10/02 11:14:00;;;;;;;10.20;2.05;;;;;;;20.09;60.06;99337.47;5034140;28;20172;-67
2023/10/02 11:16:35;;;;;;;10.10;5.65;;;;;;;20.28;59.31;99343.69;5051536;28;20061;-66
2023/10/02 11:19:13;;;;;;;10.23;5.05;;;;;;;20.55;59.07;99347.69;5050907;28;20040;-66
2023/10/02 11:22:01;;;;;;;6.03;2.50;;;;;;;21.85;55.94;99347.41;5051409;28;20063;-67
2023/10/02 11:24:27;;;;;;;7.97;2.20;;;;;;;23.39;50.97;99347.16;5034180;28;20123;-66
2023/10/02 11:27:04;;;;;;;6.50;2.20;;;;;;;24.27;47.36;99345.16;5050304;28;20566;-66
2023/10/02 11:29:42;;;;;;;5.35;1.65;;;;;;;24.51;45.58;99349.22;5051453;28;20044;-67
2023/10/02 11:32:19;;;;;;;3.92;1.65;;;;;;;24.39;45.45;99345.84;5066458;28;20079;-66
2023/10/02 11:34:46;;;;;;;3.15;1.52;;;;;;;24.30;45.14;99348.19;5017403;28;20040;-67
2023/10/02 11:37:16;;;;;;;9.80;2.20;;;;;;;24.48;44.67;99341.59;5050585;28;20107;-67
2023/10/02 11:39:42;;;;;;;7.97;2.00;;;;;;;24.48;44.17;99342.41;5067079;28;20122;-68
2023/10/02 11:42:09;;;;;;;13.85;2.30;;;;;;;24.60;43.36;99342.28;5017315;28;20051;-68
2023/10/02 11:44:39;;;;;;;7.57;2.03;;;;;;;24.76;43.15;99334.06;5051127;28;20482;-67
2023/10/02 11:47:12;;;;;;;10.93;2.40;;;;;;;24.91;42.86;99338.00;5082533;28;20127;-67
2023/10/02 11:49:39;;;;;;;3.13;1.73;;;;;;;24.75;42.02;99326.19;5050110;28;20037;-69
2023/10/02 11:52:06;;;;;;;6.90;1.90;;;;;;;24.48;42.29;99334.28;5050875;28;20374;-69
2023/10/02 11:54:39;;;;;;;3.88;1.67;;;;;;;24.30;42.33;99333.78;5049330;28;20052;-67
2023/10/02 11:57:09;;;;;;;4.18;1.70;;;;;;;24.00;42.57;99339.66;5051087;28;20095;-67
2023/10/02 11:59:43;;;;;;;6.95;1.88;;;;;;;23.74;43.65;99334.13;5049762;28;20119;-67
2023/10/02 12:02:13;;;;;;;11.20;4.50;;;;;;;23.36;44.19;99336.81;5015350;28;20044;-68
2023/10/02 12:04:39;;;;;;;4.30;1.77;;;;;;;23.11;44.55;99331.78;5050998;28;20044;-66
2023/10/02 12:07:06;;;;;;;9.00;3.55;;;;;;;23.10;45.90;99340.94;5051063;28;20041;-68
2023/10/02 12:09:33;;;;;;;6.15;2.20;;;;;;;23.00;46.72;99338.09;5051166;28;20068;-66
2023/10/02 12:11:59;;;;;;;3.42;2.10;;;;;;;23.05;47.72;99341.69;5050424;28;20566;-67
2023/10/02 12:14:26;;;;;;;4.28;1.52;;;;;;;23.16;46.97;99343.50;5051317;28;20127;-67
2023/10/02 12:16:54;;;;;;;4.20;2.00;;;;;;;23.09;46.86;99336.63;5050060;28;20060;-67
2023/10/02 12:19:21;;;;;;;7.55;2.45;;;;;;;23.03;46.75;99341.09;5050336;28;20067;-66
2023/10/02 12:21:47;;;;;;;8.45;2.03;;;;;;;22.87;46.46;99341.09;5051107;28;20040;-66
2023/10/02 12:24:14;;;;;;;5.88;2.65;;;;;;;22.70;46.46;99349.19;5050019;28;20087;-66
2023/10/02 12:26:41;;;;;;;7.18;2.50;;;;;;;22.54;46.63;99338.34;5050887;28;20059;-66
2023/10/02 12:29:06;;;;;;;4.97;2.05;;;;;;;22.24;47.29;99338.53;5050846;28;20057;-67
2023/10/02 12:31:36;;;;;;;6.22;2.60;;;;;;;22.25;47.46;99336.66;5050072;28;20045;-67
2023/10/02 12:34:05;;;;;;;7.70;2.60;;;;;;;22.23;47.62;99336.91;5049658;28;20048;-67
2023/10/02 12:36:32;;;;;;;4.60;2.35;;;;;;;22.03;47.78;99344.59;5050753;28;20506;-66
2023/10/02 12:39:02;;;;;;;4.72;2.10;;;;;;;21.90;47.60;99338.59;5033271;28;20044;-65